Time;durP1;ratioP1;P1;durP2;ratioP2;P2;SDS_P1;SDS_P2;PMS_P1;PMS_P2;Temp;Humidity;BMP_temperature;BMP_pressure;BME280_temperature;BME280_humidity;BME280_pressure;Samples;Min_cycle;Max_cycle;Signal;HPM_P1;HPM_P2
2023/08/15 13:54:14;;;;;;;0.93;0.40;;;22.90;87.40;;;;;;5080320;28;20398;-75
2023/08/15 13:56:39;;;;;;;1.63;0.40;;;23.10;88.20;;;;;;5083513;28;20028;-73
2023/08/15 13:59:05;;;;;;;1.95;0.50;;;23.30;85.00;;;;;;5064513;28;21040;-72
2023/08/15 14:01:33;;;;;;;1.05;0.40;;;23.30;86.30;;;;;;5068613;28;20025;-71
2023/08/15 14:03:58;;;;;;;1.38;0.40;;;23.30;85.90;;;;;;5072909;28;20021;-72
2023/08/15 14:06:24;;;;;;;2.50;0.50;;;23.50;82.10;;;;;;5072743;28;20028;-73
2023/08/15 14:08:50;;;;;;;1.10;0.50;;;23.60;80.50;;;;;;5074168;28;20494;-73
2023/08/15 14:11:15;;;;;;;0.80;0.50;;;23.80;82.90;;;;;;5083875;28;20480;-71
2023/08/15 14:13:42;;;;;;;1.45;0.55;;;23.90;84.60;;;;;;5073838;28;20571;-70
2023/08/15 14:16:08;;;;;;;0.60;0.30;;;24.10;83.50;;;;;;5072694;28;20036;-71
2023/08/15 14:18:33;;;;;;;1.20;0.47;;;24.20;82.50;;;;;;5072238;28;20021;-70
2023/08/15 14:20:59;;;;;;;1.20;0.60;;;24.20;80.90;;;;;;5074106;28;20044;-73
2023/08/15 14:23:24;;;;;;;0.82;0.30;;;24.00;78.50;;;;;;5074067;28;20096;-73
2023/08/15 14:25:50;;;;;;;0.93;0.55;;;23.90;81.70;;;;;;5073413;28;20031;-71
2023/08/15 14:28:16;;;;;;;1.63;0.52;;;23.90;83.20;;;;;;5076315;28;20489;-71
2023/08/15 14:30:42;;;;;;;2.05;0.52;;;23.90;82.90;;;;;;5070045;28;20071;-71
2023/08/15 14:33:09;;;;;;;0.90;0.60;;;23.90;83.70;;;;;;5067279;28;20040;-71
2023/08/15 14:35:35;;;;;;;2.00;0.50;;;24.00;82.90;;;;;;5072422;28;20032;-71
2023/08/15 14:38:01;;;;;;;1.33;0.57;;;23.80;77.80;;;;;;5074424;28;20025;-77
2023/08/15 14:40:27;;;;;;;0.93;0.40;;;23.80;79.40;;;;;;5076810;28;20052;-72
2023/08/15 14:42:52;;;;;;;2.35;0.73;;;24.10;81.10;;;;;;5085084;28;20052;-70
2023/08/15 14:45:18;;;;;;;1.23;0.60;;;24.10;79.30;;;;;;5082904;28;20028;-71
2023/08/15 14:47:44;;;;;;;1.73;0.60;;;24.10;81.60;;;;;;5084420;28;20036;-70
2023/08/15 14:50:10;;;;;;;1.77;0.57;;;24.10;80.00;;;;;;5083855;28;20111;-71
2023/08/15 14:52:40;;;;;;;1.00;0.52;;;24.40;80.00;;;;;;5081991;28;20040;-70
2023/08/15 14:55:06;;;;;;;1.35;0.60;;;24.50;80.00;;;;;;5073222;28;20025;-70
2023/08/15 14:57:32;;;;;;;1.50;0.60;;;24.20;77.20;;;;;;5086163;28;20031;-71
2023/08/15 14:59:58;;;;;;;1.25;0.57;;;24.00;77.40;;;;;;5079933;28;20100;-72
2023/08/15 15:02:23;;;;;;;1.20;0.55;;;23.90;80.60;;;;;;5074644;28;20111;-80
2023/08/15 15:04:49;;;;;;;1.63;0.70;;;23.70;80.30;;;;;;5063679;28;20039;-71
2023/08/15 15:07:15;;;;;;;3.15;0.70;;;23.60;80.60;;;;;;5062136;28;20047;-71
2023/08/15 15:09:40;;;;;;;1.23;0.60;;;23.50;80.90;;;;;;5062876;28;20393;-71
2023/08/15 15:12:07;;;;;;;2.63;0.57;;;23.50;81.10;;;;;;5063035;28;20412;-70
2023/08/15 15:14:33;;;;;;;1.25;0.60;;;23.40;79.50;;;;;;5061009;28;20025;-73
2023/08/15 15:16:58;;;;;;;1.00;0.47;;;23.40;79.00;;;;;;5060463;28;20464;-72
2023/08/15 15:19:24;;;;;;;2.05;0.77;;;23.40;80.30;;;;;;5075271;28;20397;-72
2023/08/15 15:21:52;;;;;;;1.05;0.40;;;23.40;79.90;;;;;;5071171;28;20024;-74
2023/08/15 15:24:19;;;;;;;2.10;0.50;;;23.50;79.50;;;;;;5060716;28;20021;-70
2023/08/15 15:26:44;;;;;;;2.63;0.57;;;23.40;78.40;;;;;;5058760;28;20404;-71
2023/08/15 15:29:10;;;;;;;1.27;0.45;;;23.60;79.70;;;;;;5071317;28;20021;-71
2023/08/15 15:31:35;;;;;;;2.25;0.60;;;23.70;80.20;;;;;;5068214;28;21148;-71
2023/08/15 15:34:01;;;;;;;1.90;0.50;;;24.00;77.00;;;;;;5058925;28;20033;-71
2023/08/15 15:36:27;;;;;;;1.08;0.57;;;23.90;77.10;;;;;;5069179;28;20112;-73
2023/08/15 15:38:53;;;;;;;1.10;0.63;;;24.10;78.10;;;;;;5066847;28;20073;-74
2023/08/15 15:41:19;;;;;;;1.15;0.55;;;24.10;78.50;;;;;;5065656;28;20025;-74
2023/08/15 15:43:44;;;;;;;0.82;0.60;;;25.30;85.10;;;;;;5055365;28;20035;-71
2023/08/15 15:46:13;;;;;;;1.75;0.50;;;25.60;79.10;;;;;;5051019;28;20092;-74
2023/08/15 15:48:39;;;;;;;2.22;0.55;;;25.70;74.30;;;;;;5056814;28;20029;-71
2023/08/15 15:51:05;;;;;;;1.45;0.60;;;25.30;72.40;;;;;;5067302;28;20054;-74
2023/08/15 15:53:31;;;;;;;1.65;0.60;;;24.90;74.30;;;;;;5058182;28;20510;-74
2023/08/15 15:55:56;;;;;;;1.38;0.40;;;24.80;75.50;;;;;;5057615;28;20043;-74
2023/08/15 15:58:22;;;;;;;0.45;0.35;;;24.90;79.00;;;;;;5056997;28;20133;-74
2023/08/15 16:00:48;;;;;;;0.90;0.52;;;25.60;76.40;;;;;;5059722;28;20020;-74
2023/08/15 16:03:13;;;;;;;1.58;0.47;;;26.30;77.40;;;;;;5058284;28;20039;-73
2023/08/15 16:05:39;;;;;;;1.23;0.50;;;26.70;73.60;;;;;;5058228;28;20029;-73
2023/08/15 16:08:05;;;;;;;0.82;0.43;;;26.30;68.80;;;;;;5058582;28;20027;-74
2023/08/15 16:10:30;;;;;;;1.73;0.60;;;26.40;70.20;;;;;;5057711;28;20031;-74
2023/08/15 16:12:56;;;;;;;1.25;0.50;;;26.70;72.40;;;;;;5058453;28;20024;-77
2023/08/15 16:15:22;;;;;;;0.52;0.40;;;27.30;68.70;;;;;;5056692;28;20021;-72
2023/08/15 16:17:47;;;;;;;1.25;0.63;;;27.70;68.90;;;;;;5057632;28;20033;-73
2023/08/15 16:20:13;;;;;;;0.98;0.60;;;28.00;64.80;;;;;;5056885;28;20028;-79
2023/08/15 16:22:39;;;;;;;1.33;0.70;;;28.50;72.50;;;;;;5056539;28;20091;-72
2023/08/15 16:25:05;;;;;;;0.47;0.43;;;28.30;62.70;;;;;;5053971;28;20091;-71
2023/08/15 16:27:30;;;;;;;1.17;0.50;;;28.20;67.70;;;;;;5053632;28;20533;-71
2023/08/15 16:29:56;;;;;;;0.80;0.60;;;28.20;60.60;;;;;;5053300;28;20520;-71
2023/08/15 16:32:22;;;;;;;1.42;0.70;;;28.20;62.90;;;;;;5053450;28;20040;-71
2023/08/15 16:34:47;;;;;;;1.10;0.50;;;28.30;61.90;;;;;;5052593;28;20020;-71
2023/08/15 16:37:15;;;;;;;1.23;0.50;;;28.20;61.10;;;;;;5053063;28;20055;-71
2023/08/15 16:39:40;;;;;;;1.58;0.70;;;28.30;59.70;;;;;;5048995;28;20025;-75
2023/08/15 16:42:06;;;;;;;0.68;0.50;;;28.10;59.50;;;;;;5050031;28;20031;-72
2023/08/15 16:44:32;;;;;;;0.95;0.50;;;28.00;59.30;;;;;;5046153;28;20014;-73
2023/08/15 16:46:57;;;;;;;1.13;0.50;;;27.80;60.00;;;;;;5044398;28;20485;-73
2023/08/15 16:49:24;;;;;;;1.27;0.65;;;28.00;61.40;;;;;;5048331;28;20029;-73
2023/08/15 16:51:49;;;;;;;1.38;0.68;;;28.20;64.90;;;;;;5056882;28;20021;-77
2023/08/15 16:54:15;;;;;;;2.08;0.60;;;28.40;61.90;;;;;;5057224;28;20104;-76
2023/08/15 16:56:41;;;;;;;1.00;0.55;;;28.40;56.10;;;;;;5057403;28;20043;-76
2023/08/15 16:59:06;;;;;;;1.30;0.70;;;27.90;58.10;;;;;;5056317;28;20039;-75
2023/08/15 17:01:32;;;;;;;1.17;0.52;;;27.20;57.90;;;;;;5059601;28;20017;-73
2023/08/15 17:03:58;;;;;;;1.08;0.40;;;26.90;58.80;;;;;;5057133;28;20466;-74
2023/08/15 17:06:23;;;;;;;1.27;0.40;;;26.50;59.60;;;;;;5057052;28;20711;-71
2023/08/15 17:08:49;;;;;;;1.17;0.40;;;26.10;59.10;;;;;;5057345;28;20385;-71
2023/08/15 17:11:14;;;;;;;1.02;0.40;;;25.40;59.50;;;;;;5057102;28;20021;-71
2023/08/15 17:13:40;;;;;;;0.73;0.38;;;24.90;62.10;;;;;;5057122;28;20032;-71
2023/08/15 17:16:06;;;;;;;1.00;0.40;;;24.70;66.10;;;;;;5057142;28;20055;-70
2023/08/15 17:18:31;;;;;;;0.55;0.30;;;25.50;68.50;;;;;;5056670;28;20060;-70
2023/08/15 17:20:57;;;;;;;1.70;0.40;;;25.90;62.10;;;;;;5057235;28;20024;-70
2023/08/15 17:23:23;;;;;;;1.38;0.50;;;25.60;61.80;;;;;;5056915;28;20405;-69
2023/08/15 17:25:49;;;;;;;1.30;0.47;;;25.50;63.20;;;;;;5055595;28;20060;-70
2023/08/15 17:28:14;;;;;;;1.17;0.50;;;25.80;63.50;;;;;;5056752;28;20029;-72
2023/08/15 17:30:40;;;;;;;0.77;0.50;;;26.60;66.70;;;;;;5056613;28;20025;-68
2023/08/15 17:33:06;;;;;;;0.88;0.32;;;27.40;63.90;;;;;;5056681;28;20047;-71
2023/08/15 17:35:31;;;;;;;0.80;0.30;;;28.00;59.30;;;;;;5056885;28;20536;-69
2023/08/15 17:37:57;;;;;;;1.77;0.40;;;27.50;54.40;;;;;;5055281;28;20120;-69
2023/08/15 17:40:23;;;;;;;2.20;0.50;;;26.60;56.20;;;;;;5056763;28;20055;-68
2023/08/15 17:42:48;;;;;;;1.10;0.32;;;25.80;58.50;;;;;;5056503;28;20481;-71
2023/08/15 17:45:14;;;;;;;0.80;0.30;;;25.30;59.80;;;;;;5056712;28;20033;-70
2023/08/15 17:47:40;;;;;;;1.15;0.43;;;24.90;61.00;;;;;;5056414;28;20082;-70
2023/08/15 17:50:05;;;;;;;0.82;0.40;;;24.50;62.50;;;;;;5056620;28;20017;-71
2023/08/15 17:52:33;;;;;;;0.73;0.45;;;24.10;65.00;;;;;;5056416;28;20055;-71
2023/08/15 17:55:00;;;;;;;1.58;0.30;;;23.90;65.40;;;;;;5056668;28;20021;-71
2023/08/15 17:57:26;;;;;;;0.70;0.30;;;23.80;65.30;;;;;;5056724;28;20500;-71
2023/08/15 17:59:52;;;;;;;1.33;0.50;;;23.60;66.30;;;;;;5056886;28;20017;-68
2023/08/15 18:02:17;;;;;;;1.25;0.50;;;23.50;67.30;;;;;;5058876;28;20123;-68
2023/08/15 18:04:43;;;;;;;0.77;0.40;;;23.30;67.00;;;;;;5056422;28;20084;-68
2023/08/15 18:07:09;;;;;;;1.67;0.50;;;23.20;67.00;;;;;;5055338;28;20029;-68
2023/08/15 18:09:34;;;;;;;1.42;0.40;;;23.20;66.90;;;;;;5056607;28;20029;-68
2023/08/15 18:12:01;;;;;;;1.38;0.50;;;23.00;66.80;;;;;;5056482;28;20096;-68
2023/08/15 18:14:28;;;;;;;0.88;0.40;;;22.80;67.40;;;;;;5056771;28;20036;-70
2023/08/15 18:16:54;;;;;;;1.63;0.50;;;22.70;68.10;;;;;;5056234;28;20064;-67
2023/08/15 18:19:19;;;;;;;1.80;0.45;;;22.60;67.70;;;;;;5056541;28;20025;-67
2023/08/15 18:21:45;;;;;;;0.90;0.40;;;22.60;68.40;;;;;;5056184;28;20029;-68
2023/08/15 18:24:11;;;;;;;1.40;0.82;;;22.60;68.00;;;;;;5056381;28;20025;-68
2023/08/15 18:26:38;;;;;;;1.30;0.50;;;22.40;68.00;;;;;;5055967;28;20036;-68
2023/08/15 18:29:04;;;;;;;0.77;0.35;;;22.30;68.30;;;;;;5055090;28;20029;-67
2023/08/15 18:31:29;;;;;;;1.10;0.30;;;22.20;69.10;;;;;;5047427;28;20052;-68
2023/08/15 18:33:55;;;;;;;1.33;0.40;;;22.20;69.10;;;;;;5056443;28;20025;-68
2023/08/15 18:36:21;;;;;;;1.13;0.50;;;22.10;69.10;;;;;;5056268;28;20028;-68
2023/08/15 18:38:46;;;;;;;0.93;0.40;;;21.90;70.00;;;;;;5049476;28;20017;-68
2023/08/15 18:41:12;;;;;;;0.65;0.47;;;21.80;69.70;;;;;;5072075;28;20030;-70
2023/08/15 18:43:37;;;;;;;0.98;0.47;;;21.80;69.80;;;;;;5059883;28;20029;-70
2023/08/15 18:46:03;;;;;;;1.73;0.60;;;21.70;70.00;;;;;;5059271;28;20020;-68
2023/08/15 18:48:29;;;;;;;1.65;0.70;;;21.70;70.40;;;;;;5055479;28;20017;-68
2023/08/15 18:50:55;;;;;;;0.88;0.40;;;21.60;71.00;;;;;;5055705;28;20436;-67
2023/08/15 18:53:21;;;;;;;1.45;0.50;;;21.50;70.20;;;;;;5056020;28;20070;-67
2023/08/15 18:55:47;;;;;;;1.08;0.40;;;21.40;70.80;;;;;;5053044;28;20378;-67
2023/08/15 18:58:13;;;;;;;1.00;0.50;;;21.40;71.70;;;;;;5058337;28;20053;-69
2023/08/15 19:00:38;;;;;;;1.73;0.50;;;21.30;72.10;;;;;;5061966;28;20682;-69
2023/08/15 19:03:04;;;;;;;1.80;0.50;;;21.30;72.00;;;;;;5059423;28;20405;-69
2023/08/15 19:05:30;;;;;;;1.38;0.40;;;21.10;73.00;;;;;;5059377;28;20060;-69
2023/08/15 19:07:56;;;;;;;1.58;0.30;;;21.00;72.20;;;;;;5059538;28;20021;-69
2023/08/15 19:10:21;;;;;;;0.57;0.40;;;20.90;74.00;;;;;;5059155;28;20070;-69
2023/08/15 19:12:47;;;;;;;0.80;0.40;;;21.00;73.10;;;;;;5059378;28;20052;-69
2023/08/15 19:15:17;;;;;;;0.43;0.30;;;20.90;74.60;;;;;;5059236;28;20029;-69
2023/08/15 19:17:43;;;;;;;0.50;0.30;;;20.70;74.50;;;;;;5059294;28;20017;-75
2023/08/15 19:20:12;;;;;;;1.20;0.40;;;20.60;75.90;;;;;;5056444;28;20041;-70
2023/08/15 19:22:37;;;;;;;0.65;0.30;;;20.40;76.20;;;;;;5056220;28;20025;-69
2023/08/15 19:25:03;;;;;;;0.90;0.30;;;20.40;77.50;;;;;;5058530;28;20033;-70
2023/08/15 19:27:29;;;;;;;0.90;0.30;;;20.30;75.80;;;;;;5071678;28;20684;-70
2023/08/15 19:29:55;;;;;;;1.88;0.50;;;20.20;78.20;;;;;;5063459;28;20080;-71
2023/08/15 19:32:20;;;;;;;1.15;0.40;;;20.20;79.20;;;;;;5048999;28;20029;-70
2023/08/15 19:34:49;;;;;;;0.68;0.45;;;20.10;79.20;;;;;;5058930;28;20477;-70
2023/08/15 19:37:15;;;;;;;1.17;0.40;;;20.10;79.60;;;;;;5058997;28;20036;-73
2023/08/15 19:39:41;;;;;;;0.63;0.20;;;20.10;78.40;;;;;;5059509;28;20048;-73
2023/08/15 19:42:08;;;;;;;1.27;0.30;;;20.00;79.50;;;;;;5059068;28;20025;-73
2023/08/15 19:44:34;;;;;;;0.90;0.52;;;19.90;78.40;;;;;;5057365;28;20474;-72
2023/08/15 19:47:00;;;;;;;0.80;0.35;;;19.80;80.60;;;;;;5058724;28;20044;-72
2023/08/15 19:49:29;;;;;;;1.27;0.30;;;19.80;81.70;;;;;;5058459;28;20059;-72
2023/08/15 19:51:56;;;;;;;1.25;0.50;;;19.70;80.40;;;;;;5058253;28;20051;-77
2023/08/15 19:54:23;;;;;;;0.85;0.52;;;19.70;81.30;;;;;;5058397;28;20021;-77
2023/08/15 19:56:49;;;;;;;0.50;0.32;;;19.60;82.30;;;;;;5065019;28;20017;-78
2023/08/15 19:59:14;;;;;;;0.80;0.40;;;19.60;86.60;;;;;;5058395;28;20033;-76
2023/08/15 20:01:40;;;;;;;1.92;0.50;;;19.60;93.40;;;;;;5060948;28;20071;-76
2023/08/15 20:04:05;;;;;;;1.33;0.52;;;19.50;83.60;;;;;;5058329;28;20389;-80
2023/08/15 20:06:31;;;;;;;0.80;0.47;;;19.40;83.90;;;;;;5058319;28;20021;-77
2023/08/15 20:08:57;;;;;;;0.52;0.43;;;19.40;83.30;;;;;;5058392;28;20021;-77
2023/08/15 20:11:23;;;;;;;2.00;0.60;;;;;;;;;;5056852;28;20367;-77
2023/08/15 20:13:49;;;;;;;0.68;0.35;;;;;;;;;;5058344;28;20035;-78
2023/08/15 20:16:15;;;;;;;1.58;0.38;;;;;;;;;;5058252;28;20099;-78
2023/08/15 20:18:41;;;;;;;0.68;0.40;;;;;;;;;;5058052;28;20135;-78
2023/08/15 20:21:07;;;;;;;2.25;0.55;;;;;;;;;;5058402;28;20113;-79
2023/08/15 20:23:34;;;;;;;0.77;0.40;;;;;;;;;;5058399;28;20389;-77
2023/08/15 20:26:00;;;;;;;1.27;0.50;;;;;;;;;;5058018;28;20052;-78
2023/08/15 20:28:26;;;;;;;0.70;0.40;;;;;;;;;;5056654;28;20032;-78
2023/08/15 20:30:52;;;;;;;1.35;0.40;;;;;;;;;;5060711;28;20025;-78
2023/08/15 20:33:18;;;;;;;1.92;0.50;;;;;;;;;;5053392;28;20029;-78
2023/08/15 20:35:44;;;;;;;1.15;0.30;;;;;;;;;;5057820;28;20025;-78
2023/08/15 20:38:10;;;;;;;2.28;0.50;;;;;;;;;;5055598;28;20492;-78
2023/08/15 20:40:36;;;;;;;1.15;0.40;;;;;;;;;;5046724;28;20025;-77
2023/08/15 20:43:02;;;;;;;1.73;0.47;;;;;;;;;;5057666;28;20075;-78
2023/08/15 20:45:28;;;;;;;0.95;0.40;;;;;;;;;;5056826;28;20351;-76
2023/08/15 20:47:55;;;;;;;1.17;0.38;;;;;;;;;;5057259;28;20123;-79
2023/08/15 20:50:21;;;;;;;1.10;0.40;;;;;;;;;;5056298;28;20047;-78
2023/08/15 20:52:47;;;;;;;2.67;0.65;;;;;;;;;;5057299;28;20408;-76
2023/08/15 20:55:14;;;;;;;1.13;0.40;;;;;;;;;;5057312;28;20025;-77
2023/08/15 20:57:43;;;;;;;2.25;0.60;;;;;;;;;;5057041;28;20032;-76
2023/08/15 21:00:09;;;;;;;0.98;0.70;;;;;;;;;;5056198;28;20017;-77
2023/08/15 21:02:35;;;;;;;2.35;0.70;;;;;;;;;;5058972;28;20104;-79
2023/08/15 21:05:03;;;;;;;1.25;0.60;;;;;;;;;;5057416;28;20045;-78
2023/08/15 21:07:29;;;;;;;2.05;0.70;;;;;;;;;;5057226;28;20025;-78
2023/08/15 21:09:55;;;;;;;1.38;0.50;;;;;;;;;;5057208;28;20056;-79
2023/08/15 21:12:21;;;;;;;2.42;0.60;;;;;;;;;;5056890;28;20073;-78
2023/08/15 21:14:47;;;;;;;1.50;0.55;;;;;;;;;;5057108;28;20430;-78
2023/08/15 21:17:13;;;;;;;0.75;0.50;;;;;;;;;;5056711;28;20562;-78
2023/08/15 21:19:39;;;;;;;1.10;0.52;;;;;;;;;;5057432;28;20527;-78
2023/08/15 21:22:05;;;;;;;1.55;0.50;;;;;;;;;;5056920;28;20033;-77
2023/08/15 21:24:31;;;;;;;2.95;0.77;;;;;;;;;;5056781;28;20017;-82
2023/08/15 21:26:57;;;;;;;1.27;0.60;;;;;;;;;;5055751;28;20025;-79
2023/08/15 21:29:23;;;;;;;1.17;0.40;;;;;;;;;;5059988;28;20021;-78
2023/08/15 21:31:49;;;;;;;1.33;0.40;;;;;;;;;;5051614;28;20025;-78
2023/08/15 21:34:15;;;;;;;1.08;0.80;;;;;;;;;;5056886;28;20501;-80
2023/08/15 21:36:41;;;;;;;1.80;0.57;;;;;;;;;;5055345;28;20497;-77
2023/08/15 21:39:07;;;;;;;2.70;0.70;;;;;;;;;;5041921;28;20033;-77
2023/08/15 21:41:33;;;;;;;0.93;0.40;;;;;;;;;;5049429;28;20086;-81
2023/08/15 21:43:59;;;;;;;0.60;0.40;;;;;;;;;;5056834;28;20084;-80
2023/08/15 21:46:25;;;;;;;0.93;0.50;;;;;;;;;;5056634;28;20483;-80
2023/08/15 21:48:51;;;;;;;3.13;0.60;;;;;;;;;;5055258;28;20029;-79
2023/08/15 21:51:17;;;;;;;1.25;0.43;;;;;;;;;;5056031;28;20108;-77
2023/08/15 21:53:43;;;;;;;1.50;0.40;;;;;;;;;;5057267;28;20045;-80
2023/08/15 21:56:09;;;;;;;1.45;0.50;;;;;;;;;;5059935;28;20102;-79
2023/08/15 21:58:35;;;;;;;1.40;0.50;;;;;;;;;;5056344;28;20067;-79
2023/08/15 22:01:02;;;;;;;1.13;0.40;;;;;;;;;;5057071;28;20032;-78
2023/08/15 22:03:28;;;;;;;1.05;0.50;;;;;;;;;;5056249;28;20028;-78
2023/08/15 22:05:54;;;;;;;1.20;0.50;;;;;;;;;;5055668;28;20438;-80
2023/08/15 22:08:20;;;;;;;1.30;0.40;;;;;;;;;;5056410;28;20436;-78
2023/08/15 22:10:47;;;;;;;1.50;0.70;;;;;;;;;;5055496;28;20029;-78
2023/08/15 22:13:13;;;;;;;1.05;0.65;;;;;;;;;;5056253;28;20060;-78
2023/08/15 22:15:39;;;;;;;0.98;0.50;;;;;;;;;;5058707;28;20029;-79
2023/08/15 22:18:05;;;;;;;1.00;0.60;;;;;;;;;;5059517;28;20481;-79
2023/08/15 22:20:31;;;;;;;0.57;0.40;;;;;;;;;;5060319;28;20036;-82
2023/08/15 22:22:57;;;;;;;1.08;0.50;;;;;;;;;;5060330;28;20039;-82
2023/08/15 22:25:23;;;;;;;2.65;0.50;;;;;;;;;;5058914;28;20114;-82
2023/08/15 22:27:49;;;;;;;0.68;0.40;;;;;;;;;;5059156;28;20040;-77
2023/08/15 22:30:15;;;;;;;1.50;0.55;;;;;;;;;;5059933;28;20444;-77
2023/08/15 22:32:41;;;;;;;2.40;0.50;;;;;;;;;;5051660;28;20033;-77
2023/08/15 22:35:07;;;;;;;0.60;0.50;;;;;;;;;;5060299;28;20029;-77
2023/08/15 22:37:33;;;;;;;0.90;0.50;;;;;;;;;;5060225;28;20075;-77
2023/08/15 22:40:03;;;;;;;1.77;0.52;;;;;;;;;;5046241;28;20032;-77
2023/08/15 22:42:28;;;;;;;1.05;0.60;;;;;;;;;;5059679;28;20021;-77
2023/08/15 22:44:54;;;;;;;1.25;0.60;;;;;;;;;;5059877;28;20028;-77
2023/08/15 22:47:21;;;;;;;0.70;0.50;;;;;;;;;;5059945;28;20024;-77
2023/08/15 22:49:46;;;;;;;1.02;0.60;;;;;;;;;;5059724;28;20029;-77
2023/08/15 22:52:12;;;;;;;0.90;0.50;;;;;;;;;;5059623;28;20045;-77
2023/08/15 22:54:39;;;;;;;0.80;0.60;;;;;;;;;;5059374;28;20428;-77
2023/08/15 22:57:05;;;;;;;1.20;0.50;;;;;;;;;;5059756;28;20025;-78
2023/08/15 22:59:31;;;;;;;1.75;0.50;;;;;;;;;;5058672;28;20052;-78
2023/08/15 23:01:57;;;;;;;2.00;0.73;;;;;;;;;;5061594;28;20496;-78
2023/08/15 23:04:23;;;;;;;2.45;0.68;;;;;;;;;;5058137;28;20025;-78
2023/08/15 23:06:49;;;;;;;2.50;0.63;;;;;;;;;;5059752;28;20469;-78
2023/08/15 23:09:15;;;;;;;2.03;0.70;;;;;;;;;;5058312;28;20449;-78
2023/08/15 23:11:41;;;;;;;1.02;0.50;;;;;;;;;;5059357;28;20036;-78
2023/08/15 23:14:07;;;;;;;0.98;0.60;;;;;;;;;;5059174;28;20112;-78
2023/08/15 23:16:33;;;;;;;0.85;0.50;;;;;;;;;;5057985;28;20056;-81
2023/08/15 23:18:59;;;;;;;1.15;0.50;;;;;;;;;;5059110;28;20107;-81
2023/08/15 23:21:26;;;;;;;1.80;0.50;;;;;;;;;;5059459;28;20069;-81
2023/08/15 23:23:52;;;;;;;3.20;0.70;;;;;;;;;;5057616;28;20508;-82
2023/08/15 23:26:18;;;;;;;1.75;0.50;;;;;;;;;;5058672;28;20108;-81
2023/08/15 23:28:44;;;;;;;1.42;0.60;;;;;;;;;;5058916;28;20112;-81
2023/08/15 23:31:11;;;;;;;1.50;0.63;;;;;;;;;;5052731;28;20083;-81
2023/08/15 23:33:37;;;;;;;0.88;0.60;;;;;;;;;;5058217;28;20020;-80
2023/08/15 23:36:03;;;;;;;1.42;0.57;;;;;;;;;;5059301;28;20466;-80
2023/08/15 23:38:29;;;;;;;0.93;0.63;;;;;;;;;;5053952;28;20021;-81
2023/08/15 23:40:55;;;;;;;0.90;0.57;;;;;;;;;;5052190;28;20025;-81
2023/08/15 23:43:21;;;;;;;1.65;0.60;;;;;;;;;;5057830;28;20495;-81
2023/08/15 23:45:47;;;;;;;1.35;0.80;;;;;;;;;;5057634;28;20104;-81
2023/08/15 23:48:13;;;;;;;2.58;0.70;;;;;;;;;;5058223;28;20045;-80
2023/08/15 23:50:39;;;;;;;1.08;0.60;;;;;;;;;;5058850;28;20394;-81
2023/08/15 23:53:05;;;;;;;1.50;0.60;;;;;;;;;;5058768;28;20418;-80
2023/08/15 23:55:32;;;;;;;2.08;1.02;;;;;;;;;;5057398;28;20024;-81
2023/08/15 23:57:58;;;;;;;2.75;0.80;;;;;;;;;;5058451;28;20028;-81
